Time;durP1;ratioP1;P1;durP2;ratioP2;P2;SDS_P1;SDS_P2;PMS_P1;PMS_P2;Temp;Humidity;BMP_temperature;BMP_pressure;BME280_temperature;BME280_humidity;BME280_pressure;Samples;Min_cycle;Max_cycle;Signal;HPM_P1;HPM_P2
2022/12/24 00:00:26;;;;;;;29.43;18.87;;;7.30;99.90;;;;;;5066253;28;20063;-79
2022/12/24 00:02:52;;;;;;;25.37;16.43;;;7.30;99.90;;;;;;5061958;28;20102;-81
2022/12/24 00:05:18;;;;;;;26.40;15.90;;;7.30;99.90;;;;;;5066046;28;20044;-79
2022/12/24 00:07:43;;;;;;;25.67;15.93;;;7.30;99.90;;;;;;5053049;28;20040;-80
2022/12/24 00:10:09;;;;;;;23.07;15.63;;;7.30;99.90;;;;;;5068325;28;20073;-80
2022/12/24 00:12:35;;;;;;;25.67;16.57;;;7.30;99.90;;;;;;5068917;28;20040;-79
2022/12/24 00:15:02;;;;;;;33.03;17.67;;;7.30;99.90;;;;;;5064594;28;20190;-81
2022/12/24 00:17:28;;;;;;;26.00;16.40;;;7.30;99.90;;;;;;5067634;28;20079;-81
2022/12/24 00:19:54;;;;;;;34.40;18.70;;;7.30;99.90;;;;;;5067461;28;20095;-82
2022/12/24 00:22:19;;;;;;;27.83;16.83;;;7.30;99.90;;;;;;5067737;28;20531;-80
2022/12/24 00:24:45;;;;;;;26.07;16.87;;;7.30;99.90;;;;;;5070738;28;20118;-79
2022/12/24 00:27:11;;;;;;;37.43;19.53;;;7.40;99.90;;;;;;5067287;28;20050;-80
2022/12/24 00:29:36;;;;;;;36.07;18.73;;;7.30;99.90;;;;;;5069370;28;20110;-81
2022/12/24 00:32:06;;;;;;;25.60;16.50;;;7.30;99.90;;;;;;5067823;28;20048;-81
2022/12/24 00:34:32;;;;;;;33.20;18.87;;;7.30;99.90;;;;;;5067575;28;20509;-81
2022/12/24 00:36:58;;;;;;;31.50;18.60;;;7.30;99.90;;;;;;5067292;28;20044;-81
2022/12/24 00:39:24;;;;;;;28.17;17.13;;;7.40;99.90;;;;;;5065751;28;20067;-81
2022/12/24 00:41:50;;;;;;;109.40;29.97;;;7.40;99.90;;;;;;5051137;28;20049;-81
2022/12/24 00:44:15;;;;;;;29.07;17.53;;;7.40;99.90;;;;;;5068551;28;20036;-80
2022/12/24 00:46:41;;;;;;;34.43;17.87;;;7.30;99.90;;;;;;5067575;28;20044;-81
2022/12/24 00:49:08;;;;;;;26.40;17.13;;;7.40;99.90;;;;;;5067378;28;20084;-80
2022/12/24 00:51:35;;;;;;;45.90;21.80;;;7.30;99.90;;;;;;5066550;28;20091;-81
2022/12/24 00:54:01;;;;;;;35.07;18.60;;;7.40;99.90;;;;;;5069393;28;20047;-81
2022/12/24 00:56:27;;;;;;;34.33;17.83;;;7.30;99.90;;;;;;5068036;28;20067;-80
2022/12/24 00:58:53;;;;;;;47.43;22.47;;;7.30;99.90;;;;;;5064630;28;20075;-80
2022/12/24 01:01:22;;;;;;;33.80;17.90;;;7.40;99.90;;;;;;5068640;28;20112;-80
2022/12/24 01:03:48;;;;;;;34.47;18.63;;;7.40;99.90;;;;;;5063153;28;20112;-80
2022/12/24 01:06:17;;;;;;;31.47;17.30;;;7.40;99.90;;;;;;5069416;28;20114;-80
2022/12/24 01:08:43;;;;;;;29.03;17.67;;;7.40;99.90;;;;;;5052445;28;20097;-80
2022/12/24 01:11:10;;;;;;;33.00;17.53;;;7.40;99.90;;;;;;5066152;28;20044;-80
2022/12/24 01:13:36;;;;;;;41.23;19.07;;;7.40;99.90;;;;;;5066701;28;20059;-80
2022/12/24 01:16:02;;;;;;;31.07;19.33;;;7.40;99.90;;;;;;5064564;28;20048;-80
2022/12/24 01:18:28;;;;;;;31.77;18.10;;;7.40;99.90;;;;;;5067092;28;20207;-79
2022/12/24 01:21:01;;;;;;;30.87;18.60;;;7.40;99.90;;;;;;5068623;28;20093;-80
2022/12/24 01:23:28;;;;;;;28.50;17.87;;;7.50;99.90;;;;;;5065698;28;20058;-80
2022/12/24 01:25:54;;;;;;;36.47;20.00;;;7.50;99.90;;;;;;5068057;28;20075;-80
2022/12/24 01:28:20;;;;;;;34.57;19.30;;;7.50;99.90;;;;;;5068933;28;20056;-80
2022/12/24 01:30:47;;;;;;;32.17;18.63;;;7.50;99.90;;;;;;5049682;28;20043;-79
2022/12/24 01:33:13;;;;;;;41.07;21.50;;;7.50;99.90;;;;;;5063556;28;20503;-79
2022/12/24 01:35:41;;;;;;;46.43;22.80;;;7.50;99.90;;;;;;5068470;28;20054;-81
2022/12/24 01:38:06;;;;;;;42.40;22.40;;;7.50;99.90;;;;;;5064410;28;20052;-80
2022/12/24 01:43:36;;;;;;;47.50;23.77;;;7.60;99.90;;;;;;5009884;28;20560;-83
2022/12/24 01:46:14;;;;;;;46.23;22.87;;;7.50;99.90;;;;;;5025729;28;20073;-79
2022/12/24 01:48:47;;;;;;;48.93;24.17;;;7.60;99.90;;;;;;5035252;28;20045;-79
2022/12/24 01:51:41;;;;;;;45.80;23.43;;;7.50;99.90;;;;;;5066729;28;20045;-79
2022/12/24 01:54:34;;;;;;;52.77;24.90;;;7.60;99.90;;;;;;5058328;28;20132;-80
2022/12/24 01:57:19;;;;;;;45.90;22.53;;;7.60;99.90;;;;;;5068049;28;20076;-80
2022/12/24 01:59:50;;;;;;;50.13;23.57;;;7.60;99.90;;;;;;5064440;28;20048;-80
2022/12/24 02:02:17;;;;;;;53.88;25.00;;;7.60;99.90;;;;;;5066727;28;20489;-80
2022/12/24 02:04:59;;;;;;;43.67;21.60;;;7.60;99.90;;;;;;5049331;28;20575;-79
2022/12/24 02:07:25;;;;;;;52.75;24.17;;;7.60;99.90;;;;;;5069455;28;20518;-81
2022/12/24 02:09:55;;;;;;;47.80;22.70;;;7.60;99.90;;;;;;5063857;28;20052;-81
2022/12/24 02:12:22;;;;;;;47.83;23.17;;;7.70;99.90;;;;;;5063262;28;20088;-82
2022/12/24 02:14:48;;;;;;;45.67;22.83;;;7.70;99.90;;;;;;5063413;28;20499;-80
2022/12/24 02:17:28;;;;;;;47.33;23.73;;;7.70;99.90;;;;;;5064731;28;20055;-81
2022/12/24 02:20:25;;;;;;;44.73;22.07;;;7.80;99.90;;;;;;5064059;28;20049;-82
2022/12/24 02:23:29;;;;;;;41.00;21.00;;;7.80;99.90;;;;;;5066930;28;20112;-81
2022/12/24 02:26:10;;;;;;;39.23;21.23;;;7.90;99.90;;;;;;5063898;28;20087;-80
2022/12/24 02:28:54;;;;;;;41.30;21.10;;;7.90;99.90;;;;;;5062323;28;20048;-80
2022/12/24 02:31:50;;;;;;;36.37;19.77;;;7.90;99.90;;;;;;5066552;28;20048;-82
2022/12/24 02:34:39;;;;;;;38.87;20.50;;;8.00;99.90;;;;;;5032282;28;20059;-81
2022/12/24 02:37:33;;;;;;;38.43;19.60;;;8.10;99.90;;;;;;5065352;28;20051;-82
2022/12/24 02:40:05;;;;;;;36.07;18.47;;;8.10;99.90;;;;;;5066300;28;20040;-81
2022/12/24 02:42:39;;;;;;;31.05;17.00;;;8.10;99.90;;;;;;5063091;28;20052;-81
2022/12/24 02:45:06;;;;;;;26.37;16.10;;;8.10;99.90;;;;;;5066732;28;20045;-79
2022/12/24 02:47:33;;;;;;;29.67;15.93;;;8.20;99.90;;;;;;5062400;28;20040;-79
2022/12/24 02:50:01;;;;;;;25.87;14.67;;;8.20;99.90;;;;;;5065299;28;20512;-80
2022/12/24 02:52:31;;;;;;;25.80;14.03;;;8.30;99.90;;;;;;5049261;28;20044;-80
2022/12/24 02:55:00;;;;;;;23.50;13.30;;;8.40;99.90;;;;;;5066921;28;20033;-80
2022/12/24 02:58:05;;;;;;;24.10;13.07;;;8.40;99.90;;;;;;5068448;28;20071;-79
2022/12/24 03:00:39;;;;;;;24.57;12.77;;;8.50;99.90;;;;;;5062621;28;20091;-80
2022/12/24 03:03:22;;;;;;;23.33;12.87;;;8.50;99.90;;;;;;5065001;28;20387;-80
2022/12/24 03:05:55;;;;;;;14.90;9.93;;;8.50;99.90;;;;;;5066003;28;20044;-79
2022/12/24 03:08:41;;;;;;;18.93;9.27;;;8.50;99.90;;;;;;5064663;28;20040;-80
2022/12/24 03:11:14;;;;;;;15.40;9.13;;;8.50;99.90;;;;;;5067463;28;20452;-80
2022/12/24 03:13:42;;;;;;;15.23;8.90;;;8.50;99.90;;;;;;5063545;28;20055;-80
2022/12/24 03:16:12;;;;;;;16.83;8.83;;;8.50;99.90;;;;;;5067031;28;20453;-79
2022/12/24 03:18:41;;;;;;;16.17;8.40;;;8.50;99.90;;;;;;5066012;28;20048;-79
2022/12/24 03:21:13;;;;;;;18.97;8.20;;;8.60;99.90;;;;;;5067712;28;20036;-78
2022/12/24 03:23:39;;;;;;;20.48;8.20;;;8.60;99.90;;;;;;5063166;28;20056;-79
2022/12/24 03:26:08;;;;;;;18.90;7.60;;;8.60;99.90;;;;;;5064749;28;20197;-80
2022/12/24 03:28:37;;;;;;;28.10;7.97;;;8.60;99.90;;;;;;5063547;28;20068;-80
2022/12/24 03:31:05;;;;;;;25.93;7.53;;;8.60;99.90;;;;;;5068518;28;20397;-80
2022/12/24 03:33:30;;;;;;;22.70;7.63;;;8.70;99.90;;;;;;5069166;28;20045;-80
2022/12/24 03:35:56;;;;;;;23.13;7.13;;;8.70;99.90;;;;;;5071629;28;20044;-79
2022/12/24 03:38:22;;;;;;;24.73;6.97;;;8.70;99.90;;;;;;5070311;28;20055;-79
2022/12/24 03:40:48;;;;;;;25.20;7.20;;;8.70;99.90;;;;;;5067556;28;20036;-79
2022/12/24 03:43:14;;;;;;;26.00;6.80;;;8.70;99.90;;;;;;5067796;28;20075;-78
2022/12/24 03:45:40;;;;;;;28.93;7.23;;;8.70;99.90;;;;;;5071101;28;20091;-78
2022/12/24 03:48:06;;;;;;;25.60;6.40;;;8.70;99.90;;;;;;5068928;28;20135;-78
2022/12/24 03:50:32;;;;;;;25.80;6.73;;;8.70;99.90;;;;;;5068021;28;20072;-79
2022/12/24 03:52:58;;;;;;;22.83;6.37;;;8.70;99.90;;;;;;5052026;28;20041;-78
2022/12/24 03:55:23;;;;;;;21.87;5.43;;;8.70;99.90;;;;;;5069827;28;20052;-78
2022/12/24 03:57:49;;;;;;;26.90;6.27;;;8.70;99.90;;;;;;5073114;28;20052;-79
2022/12/24 04:00:16;;;;;;;23.93;6.17;;;8.70;99.90;;;;;;5069125;28;20098;-79
2022/12/24 04:02:41;;;;;;;28.43;6.00;;;8.70;99.90;;;;;;5071199;28;20047;-80
2022/12/24 04:05:12;;;;;;;30.43;5.90;;;8.70;99.90;;;;;;5077157;28;20077;-80
2022/12/24 04:07:37;;;;;;;28.93;5.97;;;8.70;99.90;;;;;;5059256;28;20045;-79
2022/12/24 04:10:03;;;;;;;34.33;6.77;;;8.70;99.90;;;;;;5068678;28;20051;-80
2022/12/24 04:12:29;;;;;;;26.10;6.17;;;8.70;99.90;;;;;;5070371;28;20048;-79
2022/12/24 04:14:55;;;;;;;30.17;6.43;;;8.70;99.90;;;;;;5069214;28;20052;-79
2022/12/24 04:17:20;;;;;;;28.47;6.10;;;8.70;99.90;;;;;;5066817;28;20033;-80
2022/12/24 04:19:46;;;;;;;29.27;6.17;;;8.70;99.90;;;;;;5068249;28;20052;-80
2022/12/24 04:22:12;;;;;;;31.13;6.90;;;8.70;99.90;;;;;;5068014;28;20040;-79
2022/12/24 04:24:37;;;;;;;34.87;6.67;;;8.70;99.90;;;;;;5052267;28;20087;-79
2022/12/24 04:27:03;;;;;;;27.17;6.10;;;8.70;99.90;;;;;;5052296;28;20096;-80
2022/12/24 04:29:29;;;;;;;29.27;6.10;;;8.70;99.90;;;;;;5048723;28;20033;-80
2022/12/24 04:31:54;;;;;;;30.63;6.97;;;8.70;99.90;;;;;;5065383;28;20041;-80
2022/12/24 04:34:20;;;;;;;30.03;6.33;;;8.70;99.90;;;;;;5067951;28;20104;-80
2022/12/24 04:36:46;;;;;;;31.47;6.17;;;8.70;99.90;;;;;;5069776;28;20094;-80
2022/12/24 04:39:11;;;;;;;28.87;6.93;;;8.70;99.90;;;;;;5065453;28;20037;-80
2022/12/24 04:41:37;;;;;;;32.97;6.00;;;8.70;99.90;;;;;;5065847;28;20105;-78
2022/12/24 04:44:02;;;;;;;28.13;6.47;;;8.70;99.90;;;;;;5067574;28;20047;-77
2022/12/24 04:46:29;;;;;;;25.00;6.03;;;8.70;99.90;;;;;;5065366;28;20286;-78
2022/12/24 04:48:55;;;;;;;30.50;5.93;;;8.70;99.90;;;;;;5067397;28;20055;-80
2022/12/24 04:51:22;;;;;;;27.47;6.07;;;8.70;99.90;;;;;;5068145;28;20040;-80
2022/12/24 04:53:48;;;;;;;32.33;6.20;;;8.70;99.90;;;;;;5066852;28;20040;-80
2022/12/24 04:56:22;;;;;;;34.23;6.60;;;8.70;99.90;;;;;;5066361;28;20040;-80
2022/12/24 04:58:49;;;;;;;25.47;6.13;;;8.70;99.90;;;;;;5068012;28;20132;-79
2022/12/24 05:01:20;;;;;;;29.17;5.90;;;8.70;99.90;;;;;;5064399;28;20075;-80
2022/12/24 05:03:46;;;;;;;34.97;6.68;;;8.60;99.90;;;;;;5065424;28;20057;-80
2022/12/24 05:06:15;;;;;;;32.17;6.67;;;8.60;99.90;;;;;;5066461;28;20075;-78
2022/12/24 05:08:42;;;;;;;35.40;7.50;;;8.60;99.90;;;;;;5064378;28;20044;-79
2022/12/24 05:11:08;;;;;;;44.83;7.23;;;8.60;99.90;;;;;;5068717;28;20045;-79
2022/12/24 05:13:35;;;;;;;32.30;6.73;;;8.60;99.90;;;;;;5070300;28;20048;-80
2022/12/24 05:16:00;;;;;;;30.13;6.63;;;8.60;99.90;;;;;;5066246;28;20163;-80
2022/12/24 05:18:26;;;;;;;40.93;7.80;;;8.60;99.90;;;;;;5066920;28;20071;-79
2022/12/24 05:20:52;;;;;;;31.20;7.03;;;8.60;99.90;;;;;;5050208;28;20052;-79
2022/12/24 05:26:21;;;;;;;39.17;7.50;;;8.60;99.90;;;;;;5067150;28;20587;-80
2022/12/24 05:28:48;;;;;;;40.73;7.57;;;8.60;99.90;;;;;;5064308;28;20033;-79
2022/12/24 05:31:14;;;;;;;37.77;7.07;;;8.60;99.90;;;;;;5068538;28;20037;-79
2022/12/24 05:33:40;;;;;;;34.27;7.40;;;8.60;99.90;;;;;;5062731;28;20068;-79
2022/12/24 05:36:06;;;;;;;38.13;7.33;;;8.60;99.90;;;;;;5065573;28;20056;-79
2022/12/24 05:38:32;;;;;;;32.83;6.93;;;8.50;99.90;;;;;;5064314;28;20049;-79
2022/12/24 05:40:57;;;;;;;40.87;7.80;;;8.50;99.90;;;;;;5066858;28;20102;-80
2022/12/24 05:43:23;;;;;;;37.27;7.77;;;8.50;99.90;;;;;;5063913;28;20044;-80
2022/12/24 05:45:49;;;;;;;38.27;7.77;;;8.50;99.90;;;;;;5066257;28;20085;-80
2022/12/24 05:48:14;;;;;;;34.67;7.00;;;8.50;99.90;;;;;;5065404;28;20058;-80
2022/12/24 05:50:40;;;;;;;35.90;8.03;;;8.50;99.90;;;;;;5066877;28;20090;-80
2022/12/24 05:53:06;;;;;;;40.13;7.30;;;8.40;99.90;;;;;;5067635;28;20217;-80
2022/12/24 05:55:32;;;;;;;34.73;7.67;;;8.40;99.90;;;;;;5066110;28;20036;-81
2022/12/24 05:57:58;;;;;;;40.23;8.10;;;8.40;99.90;;;;;;5065477;28;20134;-80
2022/12/24 06:00:24;;;;;;;35.17;7.53;;;8.50;99.90;;;;;;5069764;28;20067;-80
2022/12/24 06:02:50;;;;;;;40.77;8.13;;;8.40;99.90;;;;;;5067223;28;20048;-81
2022/12/24 06:05:15;;;;;;;38.43;7.70;;;8.40;99.90;;;;;;5066585;28;20104;-78
2022/12/24 06:07:41;;;;;;;35.17;7.47;;;8.40;99.90;;;;;;5065434;28;20051;-80
2022/12/24 06:10:09;;;;;;;48.33;8.47;;;8.50;99.90;;;;;;5067582;28;20052;-80
2022/12/24 06:12:35;;;;;;;39.87;7.73;;;8.50;99.90;;;;;;5046186;28;20497;-81
2022/12/24 06:15:00;;;;;;;42.57;7.53;;;8.50;99.90;;;;;;5068948;28;20044;-81
2022/12/24 06:17:26;;;;;;;40.83;7.77;;;8.50;99.90;;;;;;5067379;28;20053;-80
2022/12/24 06:19:52;;;;;;;37.17;8.83;;;8.50;99.90;;;;;;5066073;28;20090;-80
2022/12/24 06:22:17;;;;;;;42.50;7.87;;;8.50;99.90;;;;;;5066783;28;20041;-81
2022/12/24 06:24:43;;;;;;;45.93;7.90;;;8.50;99.90;;;;;;5066190;28;20514;-80
2022/12/24 06:27:09;;;;;;;46.27;7.57;;;8.50;99.90;;;;;;5064902;28;20063;-81
2022/12/24 06:29:34;;;;;;;35.63;7.57;;;8.50;99.90;;;;;;5064763;28;20554;-82
2022/12/24 06:32:00;;;;;;;34.33;6.73;;;8.60;99.90;;;;;;5063704;28;20037;-80
2022/12/24 06:34:26;;;;;;;38.17;8.33;;;8.50;99.90;;;;;;5065138;28;20450;-81
2022/12/24 06:36:51;;;;;;;42.73;9.50;;;8.60;99.90;;;;;;5065561;28;20041;-81
2022/12/24 06:39:17;;;;;;;40.77;8.83;;;8.60;99.90;;;;;;5064267;28;20108;-81
2022/12/24 06:41:43;;;;;;;50.83;9.60;;;8.60;99.90;;;;;;5067672;28;20113;-81
2022/12/24 06:44:09;;;;;;;49.00;10.10;;;8.60;99.90;;;;;;5067304;28;20068;-81
2022/12/24 06:46:34;;;;;;;31.60;8.13;;;8.60;99.90;;;;;;5061447;28;20113;-81
2022/12/24 06:49:00;;;;;;;44.87;10.17;;;8.60;99.90;;;;;;5060763;28;20526;-81
2022/12/24 06:51:26;;;;;;;39.83;10.23;;;8.60;99.90;;;;;;5063284;28;20098;-80
2022/12/24 06:53:51;;;;;;;42.03;9.67;;;8.70;99.90;;;;;;5065757;28;20647;-83
2022/12/24 06:56:19;;;;;;;43.13;10.00;;;8.70;99.90;;;;;;5064088;28;20128;-82
2022/12/24 06:58:45;;;;;;;44.63;9.70;;;8.70;99.90;;;;;;5064459;28;20504;-83
2022/12/24 07:01:14;;;;;;;51.23;10.10;;;8.60;99.90;;;;;;5069190;28;20049;-81
2022/12/24 07:03:40;;;;;;;40.87;9.87;;;8.60;99.90;;;;;;5071179;28;20037;-80
2022/12/24 07:06:06;;;;;;;50.20;9.87;;;8.60;99.90;;;;;;5068453;28;20040;-80
2022/12/24 07:08:34;;;;;;;46.10;10.90;;;8.70;99.90;;;;;;5050926;28;20049;-81
2022/12/24 07:11:00;;;;;;;47.17;11.00;;;8.70;99.90;;;;;;5068615;28;20048;-82
2022/12/24 07:13:26;;;;;;;39.40;10.40;;;8.70;99.90;;;;;;5068616;28;20412;-81
2022/12/24 07:15:59;;;;;;;38.83;9.63;;;8.70;99.90;;;;;;5068385;28;20048;-81
2022/12/24 07:18:25;;;;;;;43.67;11.93;;;8.70;99.90;;;;;;5068457;28;20173;-81
2022/12/24 07:20:50;;;;;;;46.20;10.97;;;8.80;99.90;;;;;;5069004;28;20072;-80
2022/12/24 07:23:16;;;;;;;41.40;10.90;;;8.80;99.90;;;;;;5069181;28;20071;-81
2022/12/24 07:25:42;;;;;;;40.57;10.13;;;8.80;99.90;;;;;;5069934;28;20048;-81
2022/12/24 07:28:08;;;;;;;43.63;11.40;;;8.80;99.90;;;;;;5069552;28;20070;-81
2022/12/24 07:30:33;;;;;;;43.33;11.63;;;8.90;99.90;;;;;;5068260;28;20067;-80
2022/12/24 07:32:59;;;;;;;44.63;10.93;;;8.80;99.90;;;;;;5068833;28;20044;-79
2022/12/24 07:35:25;;;;;;;41.10;9.73;;;8.90;99.90;;;;;;5071597;28;20049;-78
2022/12/24 07:37:51;;;;;;;38.77;10.93;;;8.90;99.90;;;;;;5069826;28;20127;-77
2022/12/24 07:40:17;;;;;;;45.83;10.03;;;8.90;99.90;;;;;;5066787;28;20691;-82
2022/12/24 07:42:42;;;;;;;35.70;10.17;;;8.90;99.90;;;;;;5068736;28;20041;-80
2022/12/24 07:45:09;;;;;;;41.27;9.90;;;8.90;99.90;;;;;;5065851;28;20052;-80
2022/12/24 07:47:35;;;;;;;40.33;9.70;;;8.90;99.90;;;;;;5067008;28;20078;-82
2022/12/24 07:50:01;;;;;;;41.60;10.37;;;8.90;99.90;;;;;;5072270;28;20501;-84
2022/12/24 07:52:27;;;;;;;43.30;10.73;;;9.00;99.90;;;;;;5069414;28;20044;-83
2022/12/24 07:54:52;;;;;;;36.77;9.67;;;9.00;99.90;;;;;;5072905;28;20044;-83
2022/12/24 07:57:18;;;;;;;34.13;10.10;;;8.90;99.90;;;;;;5067157;28;20092;-84
2022/12/24 07:59:44;;;;;;;34.27;10.33;;;8.90;99.90;;;;;;5071872;28;20107;-84
2022/12/24 08:02:10;;;;;;;41.63;9.90;;;9.00;99.90;;;;;;5065273;28;20065;-84
2022/12/24 08:04:36;;;;;;;39.43;9.43;;;9.00;99.90;;;;;;5068499;28;20060;-83
2022/12/24 08:07:06;;;;;;;35.80;8.70;;;9.00;99.90;;;;;;5068062;28;20044;-83
2022/12/24 08:09:33;;;;;;;33.93;9.13;;;9.00;99.90;;;;;;5067857;28;20040;-83
2022/12/24 08:11:58;;;;;;;34.37;9.33;;;9.00;99.90;;;;;;5064890;28;20487;-84
2022/12/24 08:14:24;;;;;;;34.80;8.57;;;9.00;99.90;;;;;;5073417;28;20048;-85
2022/12/24 08:16:50;;;;;;;40.03;9.30;;;9.00;99.90;;;;;;5054302;28;20274;-84
2022/12/24 08:19:15;;;;;;;47.87;9.67;;;8.90;99.90;;;;;;5067842;28;20049;-84
2022/12/24 08:21:41;;;;;;;44.80;9.40;;;9.00;99.90;;;;;;5072045;28;20087;-82
2022/12/24 08:24:07;;;;;;;34.93;7.90;;;9.00;99.90;;;;;;5076697;28;20079;-83
2022/12/24 08:26:33;;;;;;;37.40;10.00;;;9.00;99.90;;;;;;5059637;28;20627;-82
2022/12/24 08:28:59;;;;;;;46.43;9.47;;;9.00;99.90;;;;;;5076549;28;20056;-83
2022/12/24 08:31:24;;;;;;;38.13;8.43;;;9.00;99.90;;;;;;5059960;28;20055;-83
2022/12/24 08:33:50;;;;;;;34.80;8.80;;;9.00;99.90;;;;;;5076286;28;20078;-83
2022/12/24 08:36:15;;;;;;;35.60;8.37;;;9.00;99.90;;;;;;5076588;28;20044;-83
2022/12/24 08:38:41;;;;;;;38.87;8.90;;;9.00;99.90;;;;;;5071827;28;20902;-84
2022/12/24 08:41:07;;;;;;;34.47;8.80;;;9.00;99.90;;;;;;5076483;28;20067;-82
2022/12/24 08:43:33;;;;;;;34.30;8.23;;;9.00;99.90;;;;;;5077505;28;20036;-83
2022/12/24 08:46:03;;;;;;;35.30;8.93;;;9.00;99.90;;;;;;5076503;28;20419;-83
2022/12/24 08:48:30;;;;;;;35.43;9.53;;;9.00;99.90;;;;;;5077953;28;20097;-83
2022/12/24 08:50:56;;;;;;;37.30;8.57;;;9.00;99.90;;;;;;5074777;28;20171;-84
2022/12/24 08:53:21;;;;;;;39.17;9.37;;;9.00;99.90;;;;;;5069647;28;20083;-83
2022/12/24 08:55:47;;;;;;;31.13;8.60;;;9.00;99.90;;;;;;5039014;28;20060;-83
2022/12/24 08:58:13;;;;;;;41.33;9.23;;;9.10;99.90;;;;;;5074314;28;20060;-84
2022/12/24 09:00:39;;;;;;;32.17;8.50;;;9.00;99.90;;;;;;5076275;28;20044;-83
2022/12/24 09:03:05;;;;;;;37.60;9.27;;;9.10;99.90;;;;;;5073564;28;20048;-84
2022/12/24 09:05:31;;;;;;;41.23;9.20;;;9.10;99.90;;;;;;5062523;28;20044;-83
2022/12/24 09:07:57;;;;;;;36.77;10.47;;;9.10;99.90;;;;;;5067889;28;20037;-81
2022/12/24 09:10:23;;;;;;;35.27;9.23;;;9.10;99.90;;;;;;5067216;28;20052;-80
2022/12/24 09:12:49;;;;;;;40.77;8.87;;;9.10;99.90;;;;;;5065602;28;20079;-80
2022/12/24 09:15:16;;;;;;;31.80;8.53;;;9.20;99.90;;;;;;5076886;28;20078;-81
2022/12/24 09:17:41;;;;;;;37.97;11.07;;;9.20;99.90;;;;;;5077056;28;20120;-81
2022/12/24 09:20:08;;;;;;;42.50;11.30;;;9.20;99.90;;;;;;5073646;28;20080;-80
2022/12/24 09:22:35;;;;;;;32.63;10.13;;;9.20;99.90;;;;;;5075451;28;20098;-81
2022/12/24 09:25:03;;;;;;;39.90;9.83;;;9.20;99.90;;;;;;5074595;28;20037;-80
2022/12/24 09:27:30;;;;;;;40.03;9.40;;;9.30;99.90;;;;;;5071717;28;20059;-81
2022/12/24 09:29:56;;;;;;;41.60;10.47;;;9.30;99.90;;;;;;5075946;28;20189;-81
2022/12/24 09:32:21;;;;;;;47.33;10.27;;;9.30;99.90;;;;;;5075425;28;20786;-80
2022/12/24 09:34:47;;;;;;;34.97;9.70;;;9.30;99.90;;;;;;5074491;28;20049;-81
2022/12/24 09:37:13;;;;;;;44.07;10.67;;;9.30;99.90;;;;;;5074944;28;20044;-80
2022/12/24 09:39:38;;;;;;;37.20;9.40;;;9.30;99.90;;;;;;5061416;28;20040;-81
2022/12/24 09:42:10;;;;;;;38.80;10.10;;;9.30;99.90;;;;;;5072891;28;20040;-80
2022/12/24 09:44:53;;;;;;;41.42;9.77;;;9.40;99.90;;;;;;5059166;28;20041;-80
2022/12/24 09:47:28;;;;;;;38.33;10.13;;;9.40;99.90;;;;;;5071226;28;20184;-81
2022/12/24 09:49:58;;;;;;;32.57;9.37;;;9.40;99.90;;;;;;5057744;28;20057;-81
2022/12/24 09:52:34;;;;;;;48.77;10.93;;;9.40;99.90;;;;;;5066583;28;20532;-82
2022/12/24 09:55:33;;;;;;;39.70;10.47;;;9.50;99.90;;;;;;5076457;28;20045;-81
2022/12/24 09:58:03;;;;;;;35.97;9.70;;;9.50;99.90;;;;;;5065472;28;20049;-81
2022/12/24 10:00:34;;;;;;;46.83;9.83;;;9.50;99.90;;;;;;5075363;28;20060;-80
2022/12/24 10:03:00;;;;;;;30.50;9.40;;;9.50;99.90;;;;;;5074372;28;20043;-80
2022/12/24 10:05:40;;;;;;;39.97;10.10;;;9.50;99.90;;;;;;5074378;28;20041;-80
2022/12/24 10:08:11;;;;;;;34.57;9.53;;;9.50;99.90;;;;;;5076128;28;20051;-83
2022/12/24 10:10:47;;;;;;;34.95;8.25;;;9.50;99.90;;;;;;5066981;28;20084;-84
2022/12/24 10:13:40;;;;;;;30.03;8.57;;;9.50;99.90;;;;;;5064745;28;20048;-85
2022/12/24 10:16:19;;;;;;;26.33;7.47;;;9.50;99.90;;;;;;5073214;28;20537;-83
2022/12/24 10:19:19;;;;;;;23.17;7.03;;;9.50;99.90;;;;;;5063586;28;20124;-84
2022/12/24 10:22:10;;;;;;;22.90;7.00;;;9.50;99.90;;;;;;5064324;28;20053;-90
2022/12/24 10:25:01;;;;;;;24.80;7.00;;;9.50;99.90;;;;;;5076271;28;20079;-90
2022/12/24 10:27:36;;;;;;;24.87;6.93;;;9.50;99.90;;;;;;5080387;28;20044;-91
2022/12/24 10:30:12;;;;;;;22.23;7.50;;;9.50;99.90;;;;;;5070559;28;20049;-90
2022/12/24 10:32:39;;;;;;;25.93;8.30;;;9.50;99.90;;;;;;5063170;28;20036;-88
2022/12/24 10:35:13;;;;;;;29.60;6.47;;;9.50;99.90;;;;;;5067524;28;20040;-88
2022/12/24 10:37:41;;;;;;;25.93;6.83;;;9.50;99.90;;;;;;5063133;28;20646;-88
2022/12/24 10:40:32;;;;;;;28.87;7.50;;;9.50;99.90;;;;;;5061641;28;20045;-88
2022/12/24 10:42:58;;;;;;;25.20;6.93;;;9.50;99.90;;;;;;5055795;28;20075;-88
2022/12/24 10:45:36;;;;;;;26.83;7.17;;;9.60;99.90;;;;;;5064533;28;20457;-88
2022/12/24 10:48:08;;;;;;;28.10;6.30;;;9.60;99.90;;;;;;5065108;28;20136;-85
2022/12/24 10:50:39;;;;;;;25.08;7.35;;;9.60;99.90;;;;;;5065290;28;20052;-88
2022/12/24 10:54:02;;;;;;;34.15;6.82;;;9.60;99.90;;;;;;5068322;28;20096;-86
2022/12/24 10:56:28;;;;;;;;;;;9.70;99.90;;;;;;5020786;28;20148;-88
2022/12/24 10:58:54;;;;;;;27.13;7.53;;;9.60;99.90;;;;;;5042915;28;19964;-89
2022/12/24 11:01:40;;;;;;;26.27;7.63;;;9.70;99.90;;;;;;5046954;28;20059;-88
2022/12/24 11:04:13;;;;;;;28.43;8.47;;;9.70;99.90;;;;;;5069912;28;20040;-81
2022/12/24 11:07:03;;;;;;;26.07;7.13;;;9.80;99.90;;;;;;5073665;28;20602;-78
2022/12/24 11:09:32;;;;;;;34.30;7.90;;;9.80;99.90;;;;;;5050632;28;20096;-78
2022/12/24 11:11:59;;;;;;;28.97;6.80;;;9.80;99.90;;;;;;5073767;28;20494;-79
2022/12/24 11:14:28;;;;;;;26.07;7.13;;;9.80;99.90;;;;;;5073710;28;20075;-77
2022/12/24 11:16:55;;;;;;;25.80;6.50;;;9.80;99.90;;;;;;5073861;28;20348;-79
2022/12/24 11:19:40;;;;;;;30.30;7.47;;;9.80;99.90;;;;;;5065079;28;20174;-78
2022/12/24 11:22:16;;;;;;;31.80;7.30;;;9.90;99.90;;;;;;5074392;28;20049;-78
2022/12/24 11:24:43;;;;;;;36.80;6.10;;;9.90;99.90;;;;;;5074877;28;20055;-78
2022/12/24 11:27:44;;;;;;;23.43;5.73;;;9.90;99.90;;;;;;5075254;28;20052;-77
2022/12/24 11:30:20;;;;;;;26.48;6.18;;;9.80;99.90;;;;;;5043788;28;20048;-77
2022/12/24 11:33:07;;;;;;;29.10;6.07;;;9.90;99.90;;;;;;5058437;28;20048;-77
2022/12/24 11:35:39;;;;;;;28.73;7.13;;;9.90;99.90;;;;;;5065089;28;20041;-76
2022/12/24 11:38:05;;;;;;;32.80;8.30;;;9.90;99.90;;;;;;5065560;28;20048;-77
2022/12/24 11:40:49;;;;;;;34.97;8.07;;;9.80;99.90;;;;;;5066235;28;20088;-77
2022/12/24 11:43:20;;;;;;;37.60;7.70;;;9.80;99.90;;;;;;5061728;28;20052;-78
2022/12/24 11:45:56;;;;;;;28.97;7.00;;;9.90;99.90;;;;;;5065472;28;20041;-77
2022/12/24 11:48:33;;;;;;;34.60;7.40;;;9.80;99.90;;;;;;5052587;28;20060;-77
2022/12/24 11:51:17;;;;;;;30.23;6.67;;;9.90;99.90;;;;;;5066644;28;20055;-77
2022/12/24 11:53:57;;;;;;;30.93;6.83;;;9.90;99.90;;;;;;5069135;28;20068;-77
2022/12/24 11:56:37;;;;;;;32.17;7.20;;;9.90;99.90;;;;;;5066421;28;20132;-77
2022/12/24 11:59:23;;;;;;;30.20;7.10;;;9.90;99.90;;;;;;5071570;28;20087;-77
2022/12/24 12:02:22;;;;;;;30.23;7.73;;;9.90;99.90;;;;;;5070325;28;20040;-77
2022/12/24 12:05:04;;;;;;;37.17;7.57;;;10.00;99.90;;;;;;5072377;28;20154;-77
2022/12/24 12:07:35;;;;;;;28.08;6.68;;;10.00;99.90;;;;;;5078022;28;20074;-77
2022/12/24 12:10:07;;;;;;;31.58;7.35;;;10.00;99.90;;;;;;5072121;28;20049;-77
2022/12/24 12:12:45;;;;;;;27.45;6.25;;;10.10;99.90;;;;;;5077219;28;20044;-78
2022/12/24 12:15:45;;;;;;;30.03;7.23;;;10.10;99.90;;;;;;5060171;28;20078;-77
2022/12/24 12:18:15;;;;;;;29.17;6.47;;;10.00;99.90;;;;;;5076879;28;20052;-77
2022/12/24 12:20:49;;;;;;;24.90;6.53;;;10.00;99.90;;;;;;5075204;28;20041;-77
2022/12/24 12:23:18;;;;;;;28.73;6.33;;;10.10;99.90;;;;;;5068777;28;20063;-85
2022/12/24 12:25:52;;;;;;;28.47;6.80;;;10.10;99.90;;;;;;5068015;28;20048;-85
2022/12/24 12:28:29;;;;;;;28.37;6.73;;;10.10;99.90;;;;;;5049937;28;20055;-84
2022/12/24 12:31:04;;;;;;;26.53;5.70;;;10.10;99.90;;;;;;5071165;28;20090;-85
2022/12/24 12:33:40;;;;;;;31.57;6.63;;;10.10;99.90;;;;;;5053363;28;20573;-84
2022/12/24 12:36:09;;;;;;;26.50;6.27;;;10.10;99.90;;;;;;5075412;28;20049;-85
2022/12/24 12:38:35;;;;;;;21.27;5.17;;;10.10;99.90;;;;;;5059481;28;20527;-84
2022/12/24 12:41:25;;;;;;;25.47;5.67;;;10.10;99.90;;;;;;5073246;28;20561;-84
2022/12/24 12:44:09;;;;;;;34.00;6.03;;;10.10;99.90;;;;;;5068444;28;20094;-85
2022/12/24 12:47:00;;;;;;;28.67;6.27;;;10.10;99.90;;;;;;5062831;28;20055;-84
2022/12/24 12:49:46;;;;;;;19.77;4.80;;;10.00;99.90;;;;;;5057498;28;20084;-80
2022/12/24 12:52:27;;;;;;;24.00;4.77;;;10.10;99.90;;;;;;5063336;28;20426;-85
2022/12/24 12:55:25;;;;;;;18.00;4.70;;;10.10;99.90;;;;;;5074901;28;20108;-86
2022/12/24 12:57:56;;;;;;;20.20;5.03;;;10.00;99.90;;;;;;5076030;28;20048;-84
2022/12/24 13:00:22;;;;;;;20.65;4.90;;;10.00;99.90;;;;;;5074504;28;20052;-84
2022/12/24 13:02:57;;;;;;;19.70;4.67;;;10.00;99.90;;;;;;5074398;28;20113;-84
2022/12/24 13:05:55;;;;;;;24.50;5.13;;;10.00;99.90;;;;;;5077389;28;20430;-83